Time;durP1;ratioP1;P1;durP2;ratioP2;P2;SDS_P1;SDS_P2;PMS_P1;PMS_P2;Temp;Humidity;BMP_temperature;BMP_pressure;BME280_temperature;BME280_humidity;BME280_pressure;Samples;Min_cycle;Max_cycle;Signal;HPM_P1;HPM_P2
2022/11/25 00:01:14;;;;;;;16.60;9.57;;;3.50;99.90;;;;;;5071163;28;20120;-47
2022/11/25 00:03:42;;;;;;;17.40;8.75;;;3.50;99.90;;;;;;5067017;28;20114;-47
2022/11/25 00:06:12;;;;;;;16.95;8.93;;;3.50;99.90;;;;;;5070747;28;20086;-47
2022/11/25 00:08:40;;;;;;;18.00;9.63;;;3.50;99.90;;;;;;5070890;28;20040;-47
2022/11/25 00:11:07;;;;;;;21.95;9.43;;;3.40;99.90;;;;;;5070644;28;20500;-47
2022/11/25 00:13:35;;;;;;;;;;;3.40;99.90;;;;;;5064167;28;20071;-47
2022/11/25 00:16:11;;;;;;;17.85;10.00;;;3.40;99.90;;;;;;5062761;28;20374;-47
2022/11/25 00:18:38;;;;;;;18.13;8.98;;;3.40;99.90;;;;;;5070759;28;20492;-47
2022/11/25 00:21:10;;;;;;;20.05;9.23;;;3.30;99.90;;;;;;5070666;28;20045;-46
2022/11/25 00:23:37;;;;;;;18.60;9.65;;;3.30;99.90;;;;;;5069669;28;20048;-47
2022/11/25 00:26:12;;;;;;;20.80;9.98;;;3.30;99.90;;;;;;5070249;28;20499;-47
2022/11/25 00:28:41;;;;;;;17.65;9.63;;;3.20;99.90;;;;;;5052667;28;20504;-47
2022/11/25 00:31:10;;;;;;;18.00;8.75;;;3.20;99.90;;;;;;5069457;28;20043;-47
2022/11/25 00:33:38;;;;;;;13.93;7.75;;;3.20;99.90;;;;;;5052158;28;20037;-47
2022/11/25 00:36:10;;;;;;;18.92;9.18;;;3.10;99.90;;;;;;5067198;28;20446;-47
2022/11/25 00:38:36;;;;;;;20.20;9.05;;;3.00;99.90;;;;;;5066195;28;20447;-47
2022/11/25 00:46:34;;;;;;;18.98;9.85;;;3.10;99.90;;;;;;5052271;28;20041;-47
2022/11/25 00:49:00;;;;;;;13.95;6.63;;;3.10;99.90;;;;;;5071050;28;20445;-47
2022/11/25 00:51:27;;;;;;;18.55;9.65;;;3.80;99.90;;;;;;5069108;28;20048;-48
2022/11/25 00:53:54;;;;;;;19.00;9.75;;;3.00;99.90;;;;;;5069767;28;20087;-47
2022/11/25 00:56:25;;;;;;;22.35;10.70;;;3.70;99.90;;;;;;5070059;28;20106;-48
2022/11/25 00:58:52;;;;;;;20.80;10.77;;;2.90;99.90;;;;;;5052835;28;20690;-47
2022/11/25 01:01:19;;;;;;;20.67;10.75;;;2.90;99.90;;;;;;5052322;28;20088;-48
2022/11/25 01:03:51;;;;;;;20.60;11.00;;;2.90;99.90;;;;;;5052141;28;20420;-47
2022/11/25 01:06:18;;;;;;;19.88;11.32;;;2.90;99.90;;;;;;5052568;28;20053;-48
2022/11/25 01:08:45;;;;;;;;;;;2.90;99.90;;;;;;5049668;28;20084;-47
2022/11/25 01:11:14;;;;;;;26.70;10.68;;;2.90;99.90;;;;;;5050761;28;19920;-47
2022/11/25 01:13:41;;;;;;;20.73;9.65;;;2.90;99.90;;;;;;5050804;28;20040;-48
2022/11/25 01:16:14;;;;;;;22.70;10.88;;;2.90;99.90;;;;;;5069737;28;20044;-46
2022/11/25 01:18:41;;;;;;;18.02;9.38;;;2.90;99.90;;;;;;5052558;28;20546;-47
2022/11/25 01:21:15;;;;;;;19.67;9.38;;;2.90;99.90;;;;;;5049870;28;20095;-47
2022/11/25 01:23:44;;;;;;;20.88;9.23;;;2.90;99.90;;;;;;5051328;28;20135;-47
2022/11/25 01:26:14;;;;;;;15.90;8.63;;;2.90;99.90;;;;;;5054779;28;20049;-47
2022/11/25 01:28:43;;;;;;;18.05;9.85;;;2.90;99.90;;;;;;5054842;28;20040;-47
2022/11/25 01:31:15;;;;;;;17.35;9.68;;;2.90;99.90;;;;;;5074115;28;20098;-47
2022/11/25 01:33:43;;;;;;;20.48;9.80;;;2.90;99.90;;;;;;5055380;28;20136;-47
2022/11/25 01:36:13;;;;;;;19.30;9.75;;;2.90;99.90;;;;;;5073794;28;20044;-48
2022/11/25 01:38:42;;;;;;;18.63;9.90;;;2.90;99.90;;;;;;5068338;28;22444;-47
2022/11/25 01:41:12;;;;;;;17.83;9.18;;;2.90;99.90;;;;;;5073858;28;20086;-48
2022/11/25 01:43:40;;;;;;;17.13;9.15;;;2.80;99.90;;;;;;5073393;28;20037;-47
2022/11/25 01:46:24;;;;;;;17.55;8.65;;;2.80;99.90;;;;;;5055908;28;20107;-47
2022/11/25 01:49:05;;;;;;;19.25;9.20;;;2.80;99.90;;;;;;5054967;28;20134;-47
2022/11/25 01:51:56;;;;;;;17.38;8.75;;;2.70;99.90;;;;;;5055342;28;20094;-47
2022/11/25 01:54:27;;;;;;;21.05;9.65;;;2.60;99.90;;;;;;5068588;28;20036;-47
2022/11/25 02:00:23;;;;;;;16.65;7.57;;;2.50;99.90;;;;;;5051722;28;20036;-48
2022/11/25 02:02:53;;;;;;;18.95;8.82;;;2.50;99.90;;;;;;5062323;28;20408;-49
2022/11/25 02:05:25;;;;;;;17.13;9.15;;;2.50;99.90;;;;;;5064495;28;20064;-48
2022/11/25 02:07:59;;;;;;;17.63;9.25;;;2.50;99.90;;;;;;5036995;28;20092;-48
2022/11/25 02:10:43;;;;;;;19.50;9.18;;;2.50;99.90;;;;;;5038047;28;20106;-49
2022/11/25 02:13:10;;;;;;;17.50;9.52;;;2.50;99.90;;;;;;5053117;28;20517;-48
2022/11/25 02:15:37;;;;;;;19.40;9.68;;;2.50;99.90;;;;;;5053354;28;20098;-49
2022/11/25 02:18:04;;;;;;;12.32;6.35;;;2.50;99.90;;;;;;5042177;28;20056;-49
2022/11/25 02:20:31;;;;;;;24.65;9.70;;;2.40;99.90;;;;;;5053241;28;20508;-48
2022/11/25 02:23:35;;;;;;;23.27;9.15;;;2.50;99.90;;;;;;5051145;28;20048;-47
2022/11/25 02:26:04;;;;;;;16.23;8.70;;;2.50;99.90;;;;;;5037102;28;20050;-46
2022/11/25 02:28:33;;;;;;;17.33;8.85;;;2.40;99.90;;;;;;5043407;28;20049;-50
2022/11/25 02:31:02;;;;;;;19.25;9.45;;;2.40;99.90;;;;;;5028336;28;20046;-46
2022/11/25 02:33:29;;;;;;;16.90;8.65;;;2.40;99.90;;;;;;5011543;28;20041;-46
2022/11/25 02:36:01;;;;;;;13.45;7.25;;;2.40;99.90;;;;;;5021666;28;20057;-46
2022/11/25 02:38:56;;;;;;;14.52;8.00;;;2.30;99.90;;;;;;5051185;28;20044;-46
2022/11/25 02:41:32;;;;;;;22.35;9.13;;;2.30;99.90;;;;;;5039639;28;20037;-49
2022/11/25 02:44:02;;;;;;;18.27;9.20;;;2.30;99.90;;;;;;5039384;28;20172;-49
2022/11/25 02:46:30;;;;;;;18.33;9.02;;;2.30;99.90;;;;;;5046009;28;20551;-48
2022/11/25 02:49:00;;;;;;;17.50;8.18;;;2.30;99.90;;;;;;5052421;28;20059;-49
2022/11/25 02:51:36;;;;;;;18.17;8.13;;;2.30;99.90;;;;;;5045704;28;20042;-49
2022/11/25 02:54:04;;;;;;;17.10;8.68;;;2.20;99.90;;;;;;5050779;28;20560;-48
2022/11/25 02:56:33;;;;;;;23.70;8.60;;;2.20;99.90;;;;;;5050981;28;20041;-49
2022/11/25 02:59:01;;;;;;;16.05;7.90;;;2.20;99.90;;;;;;5050083;28;20106;-48
2022/11/25 03:01:30;;;;;;;17.13;7.97;;;2.20;99.90;;;;;;5044191;28;20493;-51
2022/11/25 03:03:57;;;;;;;14.05;7.75;;;2.20;99.90;;;;;;5050122;28;20047;-48
2022/11/25 03:06:26;;;;;;;18.45;8.73;;;2.20;99.90;;;;;;5051184;28;20040;-49
2022/11/25 03:08:53;;;;;;;17.63;8.30;;;2.20;99.90;;;;;;5044061;28;20056;-50
2022/11/25 03:12:17;;;;;;;15.07;7.95;;;2.20;99.90;;;;;;5051415;28;20033;-48
2022/11/25 03:14:08;;;;;;;14.50;6.50;;;2.20;99.90;;;;;;5049023;28;20091;-49
2022/11/25 03:16:35;;;;;;;19.52;8.35;;;2.20;99.90;;;;;;5041485;28;20072;-50
2022/11/25 03:19:03;;;;;;;15.65;8.02;;;2.20;99.90;;;;;;5038397;28;20477;-49
2022/11/25 03:21:30;;;;;;;;;;;2.20;99.90;;;;;;5030300;28;20050;-49
2022/11/25 03:23:56;;;;;;;;;;;2.20;99.90;;;;;;5031970;28;19978;-49
2022/11/25 03:26:24;;;;;;;;;;;2.20;99.90;;;;;;5036567;28;19921;-49
2022/11/25 03:28:51;;;;;;;;;;;2.20;99.90;;;;;;5033225;28;19921;-48
2022/11/25 03:31:18;;;;;;;;;;;2.30;99.90;;;;;;5030325;28;19920;-48
2022/11/25 03:33:45;;;;;;;;;;;2.30;99.90;;;;;;5029444;28;20360;-48
2022/11/25 03:36:11;;;;;;;;;;;2.20;99.90;;;;;;5033934;28;19921;-49
2022/11/25 03:38:38;;;;;;;;;;;2.20;99.90;;;;;;5050068;28;20392;-48
2022/11/25 03:41:05;;;;;;;;;;;2.20;99.90;;;;;;5049906;28;19925;-48
2022/11/25 03:43:34;;;;;;;;;;;2.20;99.90;;;;;;5049527;28;19921;-49
2022/11/25 03:46:01;;;;;;;;;;;2.20;99.90;;;;;;5036964;28;19960;-48
2022/11/25 03:48:28;;;;;;;;;;;2.20;99.90;;;;;;5018580;28;19927;-49
2022/11/25 03:50:55;;;;;;;;;;;2.20;99.90;;;;;;5048822;28;19944;-48
2022/11/25 03:53:23;;;;;;;;;;;2.20;99.90;;;;;;5048617;28;19921;-48
2022/11/25 03:55:50;;;;;;;;;;;2.10;99.90;;;;;;5040794;28;19970;-49
2022/11/25 03:58:20;;;;;;;;;;;2.10;99.90;;;;;;5050180;28;19928;-48
2022/11/25 04:00:48;;;;;;;;;;;2.10;99.90;;;;;;5050433;28;19952;-48
2022/11/25 04:03:15;;;;;;;;;;;2.10;99.90;;;;;;5043586;28;19925;-48
2022/11/25 04:05:43;;;;;;;;;;;2.10;99.90;;;;;;5037417;28;20385;-51
2022/11/25 04:08:09;;;;;;;;;;;2.20;99.90;;;;;;5050648;28;19921;-48
2022/11/25 04:10:37;;;;;;;;;;;2.20;99.90;;;;;;5050588;28;19982;-49
2022/11/25 04:13:05;;;;;;;;;;;2.20;99.90;;;;;;5038795;28;19952;-48
2022/11/25 04:15:36;;;;;;;;;;;2.20;99.90;;;;;;5043653;28;19921;-48
2022/11/25 04:18:03;;;;;;;;;;;2.30;99.90;;;;;;5050246;28;19925;-48
2022/11/25 04:20:32;;;;;;;;;;;2.20;99.90;;;;;;5047666;28;19984;-48
2022/11/25 04:23:02;;;;;;;;;;;2.20;99.90;;;;;;5049718;28;20328;-49
2022/11/25 04:25:30;;;;;;;;;;;2.20;99.90;;;;;;5049475;28;19975;-48
2022/11/25 04:27:57;;;;;;;;;;;2.30;99.90;;;;;;5047502;28;19925;-48
2022/11/25 04:30:30;;;;;;;;;;;2.30;99.90;;;;;;5041994;28;19931;-48
2022/11/25 04:32:57;;;;;;;;;;;2.30;99.90;;;;;;5050071;28;19920;-48
2022/11/25 04:35:24;;;;;;;;;;;2.20;99.90;;;;;;5050129;28;19927;-48
2022/11/25 04:37:53;;;;;;;;;;;2.20;99.90;;;;;;5048889;28;19921;-48
2022/11/25 04:40:21;;;;;;;;;;;2.20;99.90;;;;;;5050113;28;19956;-48
2022/11/25 04:42:56;;;;;;;;;;;2.20;99.90;;;;;;5049938;28;20339;-48
2022/11/25 04:45:32;;;;;;;;;;;2.20;99.90;;;;;;5041687;28;19921;-48
2022/11/25 04:48:20;;;;;;;;;;;2.20;99.90;;;;;;5039236;28;20575;-46
2022/11/25 04:50:47;;;;;;;;;;;2.20;99.90;;;;;;5050224;28;19927;-48
2022/11/25 04:53:14;;;;;;;;;;;2.10;99.90;;;;;;5041815;28;19921;-48
2022/11/25 04:55:41;;;;;;;;;;;2.10;99.90;;;;;;5044072;28;19921;-46
2022/11/25 04:58:13;;;;;;;;;;;2.10;99.90;;;;;;5050244;28;19968;-48
2022/11/25 05:00:40;;;;;;;;;;;2.10;99.90;;;;;;5052835;28;20385;-48
2022/11/25 05:03:09;;;;;;;;;;;2.10;99.90;;;;;;5055020;28;19924;-49
2022/11/25 05:05:38;;;;;;;;;;;2.00;99.90;;;;;;5051366;28;19928;-52
2022/11/25 05:08:04;;;;;;;;;;;2.00;99.90;;;;;;5053836;28;19982;-48
2022/11/25 05:10:31;;;;;;;;;;;2.10;99.90;;;;;;5051493;28;19921;-46
2022/11/25 05:12:59;;;;;;;;;;;2.10;99.90;;;;;;5052666;28;19986;-48
2022/11/25 05:15:26;;;;;;;;;;;2.10;99.90;;;;;;5047684;28;20619;-46
2022/11/25 05:17:53;;;;;;;;;;;2.00;99.90;;;;;;5052713;28;20377;-49
2022/11/25 05:20:36;;;;;;;;;;;2.00;99.90;;;;;;5029882;28;20377;-46
2022/11/25 05:23:03;;;;;;;;;;;2.00;99.90;;;;;;5061514;28;20019;-49
2022/11/25 05:25:29;;;;;;;;;;;2.00;99.90;;;;;;5042865;28;20691;-46
2022/11/25 05:28:18;;;;;;;;;;;2.00;99.90;;;;;;5039461;28;20020;-46
2022/11/25 05:30:46;;;;;;;;;;;2.00;99.90;;;;;;5046816;28;19943;-48
2022/11/25 05:33:13;;;;;;;;;;;2.00;99.90;;;;;;5052700;28;20395;-46
2022/11/25 05:35:41;;;;;;;;;;;2.00;99.90;;;;;;5046686;28;20374;-48
2022/11/25 05:38:07;;;;;;;;;;;2.00;99.90;;;;;;5034450;28;20591;-48
2022/11/25 05:40:36;;;;;;;;;;;2.00;99.90;;;;;;5039206;28;19921;-49
2022/11/25 05:43:07;;;;;;;;;;;2.00;99.90;;;;;;5046424;28;19953;-48
2022/11/25 05:45:38;;;;;;;;;;;2.00;99.90;;;;;;5043686;28;20377;-49
2022/11/25 05:48:07;;;;;;;;;;;1.90;99.90;;;;;;5052116;28;20638;-48
2022/11/25 05:50:33;;;;;;;;;;;1.90;99.90;;;;;;5036596;28;19959;-49
2022/11/25 05:53:16;;;;;;;;;;;1.90;99.90;;;;;;5043475;28;19955;-48
2022/11/25 05:55:43;;;;;;;;;;;1.90;99.90;;;;;;5035902;28;20266;-49
2022/11/25 05:58:22;;;;;;;;;;;1.90;99.90;;;;;;5052731;28;19952;-50
2022/11/25 06:00:52;;;;;;;;;;;1.90;99.90;;;;;;5045249;28;20369;-48
2022/11/25 06:03:19;;;;;;;;;;;1.80;99.90;;;;;;5052118;28;19928;-48
2022/11/25 06:05:45;;;;;;;;;;;1.80;99.90;;;;;;5045730;28;19981;-48
2022/11/25 06:08:12;;;;;;;;;;;1.80;99.90;;;;;;5031448;28;20024;-49
2022/11/25 06:10:39;;;;;;;;;;;1.80;99.90;;;;;;5032225;28;19933;-48
2022/11/25 06:13:07;;;;;;;;;;;1.80;99.90;;;;;;5031501;28;20443;-48
2022/11/25 06:15:38;;;;;;;;;;;1.80;99.90;;;;;;5032556;28;20024;-49
2022/11/25 06:18:05;;;;;;;;;;;1.80;99.90;;;;;;5028785;28;19921;-48
2022/11/25 06:20:33;;;;;;;;;;;1.70;99.90;;;;;;5061493;28;19920;-48
2022/11/25 06:23:00;;;;;;;;;;;1.70;99.90;;;;;;5051945;28;19921;-48
2022/11/25 06:25:31;;;;;;;;;;;1.70;99.90;;;;;;5052287;28;19923;-48
2022/11/25 06:27:58;;;;;;;;;;;1.60;99.90;;;;;;5045833;28;19928;-49
2022/11/25 06:30:45;;;;;;;;;;;1.60;99.90;;;;;;5046152;28;19925;-48
2022/11/25 06:33:18;;;;;;;;;;;1.50;99.90;;;;;;5032195;28;19971;-47
2022/11/25 06:35:47;;;;;;;;;;;1.50;99.90;;;;;;5031367;28;19925;-48
2022/11/25 06:38:13;;;;;;;;;;;1.50;99.90;;;;;;5043924;28;19975;-49
2022/11/25 06:40:40;;;;;;;;;;;1.50;99.90;;;;;;5048399;28;20290;-48
2022/11/25 06:43:07;;;;;;;;;;;1.40;99.90;;;;;;5032029;28;19925;-47
2022/11/25 06:48:51;;;;;;;;;;;1.40;99.90;;;;;;5011896;28;19925;-48
2022/11/25 06:51:18;;;;;;;;;;;1.50;99.90;;;;;;5011842;28;19921;-50
2022/11/25 06:53:45;;;;;;;;;;;1.50;99.90;;;;;;5039393;28;19952;-46
2022/11/25 06:56:13;;;;;;;;;;;1.50;99.90;;;;;;5052352;28;20388;-49
2022/11/25 06:58:40;;;;;;;;;;;1.60;99.90;;;;;;5052659;28;19967;-47
2022/11/25 07:01:11;;;;;;;;;;;1.60;99.90;;;;;;5044877;28;19921;-48
2022/11/25 07:03:38;;;;;;;;;;;1.60;99.90;;;;;;5039349;28;19928;-48
2022/11/25 07:06:05;;;;;;;;;;;1.60;99.90;;;;;;5051617;28;19920;-47
2022/11/25 07:08:32;;;;;;;;;;;1.60;99.90;;;;;;5043260;28;19952;-47
2022/11/25 07:11:07;;;;;;;;;;;1.60;99.90;;;;;;5052360;28;20335;-47
2022/11/25 07:13:33;;;;;;;;;;;1.60;99.90;;;;;;5052072;28;19925;-48
2022/11/25 07:16:04;;;;;;;;;;;1.70;99.90;;;;;;5052221;28;19920;-48
2022/11/25 07:18:31;;;;;;;;;;;1.70;99.90;;;;;;5042513;28;19928;-47
2022/11/25 07:21:03;;;;;;;;;;;1.70;99.90;;;;;;5045560;28;19943;-48
2022/11/25 07:23:30;;;;;;;;;;;1.70;99.90;;;;;;5044632;28;20393;-49
2022/11/25 07:26:00;;;;;;;;;;;1.80;99.90;;;;;;5050303;28;19944;-45
2022/11/25 07:28:26;;;;;;;;;;;1.80;99.90;;;;;;5051974;28;19960;-48
2022/11/25 07:30:53;;;;;;;;;;;1.80;99.90;;;;;;5040339;28;20488;-46
2022/11/25 07:33:40;;;;;;;;;;;1.90;99.90;;;;;;5039962;28;19928;-47
2022/11/25 07:36:08;;;;;;;;;;;1.90;99.90;;;;;;5039231;28;19920;-45
2022/11/25 07:38:34;;;;;;;;;;;1.90;99.90;;;;;;5048267;28;19963;-46
2022/11/25 07:41:05;;;;;;;;;;;1.90;99.90;;;;;;5031052;28;19925;-46
2022/11/25 07:43:32;;;;;;;;;;;2.00;99.90;;;;;;5051172;28;20241;-48
2022/11/25 07:46:13;;;;;;;;;;;2.00;99.90;;;;;;5051270;28;19924;-47
2022/11/25 07:48:40;;;;;;;;;;;1.90;99.90;;;;;;5051646;28;19921;-46
2022/11/25 07:51:16;;;;;;;;;;;1.90;99.90;;;;;;5040475;28;19921;-48
2022/11/25 07:53:43;;;;;;;;;;;1.90;99.90;;;;;;5046516;28;19956;-46
2022/11/25 07:59:16;;;;;;;;;;;1.90;99.90;;;;;;5036708;28;19967;-44
2022/11/25 08:01:43;;;;;;;;;;;1.90;99.90;;;;;;5034407;28;19921;-45
2022/11/25 08:04:11;;;;;;;;;;;2.00;99.90;;;;;;5051523;28;19921;-45
2022/11/25 08:06:46;;;;;;;;;;;2.10;99.90;;;;;;5035585;28;20313;-45
2022/11/25 08:09:14;;;;;;;;;;;2.10;99.90;;;;;;5031596;28;19967;-45
2022/11/25 08:11:40;;;;;;;;;;;2.10;99.90;;;;;;5031171;28;20017;-47
2022/11/25 08:14:07;;;;;;;;;;;2.20;99.90;;;;;;5031860;28;19964;-45
2022/11/25 08:16:34;;;;;;;;;;;2.30;99.90;;;;;;5024335;28;20026;-46
2022/11/25 08:19:02;;;;;;;;;;;2.40;99.90;;;;;;5031588;28;20373;-45
2022/11/25 08:21:32;;;;;;;;;;;2.50;99.90;;;;;;5024495;28;19979;-47
2022/11/25 08:24:01;;;;;;;;;;;2.70;99.90;;;;;;5025524;28;20285;-45
2022/11/25 08:26:30;;;;;;;;;;;2.90;99.90;;;;;;5026186;28;20004;-47
2022/11/25 08:28:57;;;;;;;;;;;3.00;99.90;;;;;;5030846;28;19925;-47
2022/11/25 08:31:28;;;;;;;;;;;3.10;99.90;;;;;;5029256;28;19924;-47
2022/11/25 08:33:55;;;;;;;;;;;3.20;99.90;;;;;;5033710;28;19928;-47
2022/11/25 08:36:22;;;;;;;;;;;3.40;99.90;;;;;;5035977;28;19929;-47
2022/11/25 08:38:50;;;;;;;;;;;3.50;99.90;;;;;;5037504;28;19921;-47
2022/11/25 08:41:18;;;;;;;;;;;3.60;99.90;;;;;;5037476;28;19964;-47
2022/11/25 08:43:45;;;;;;;;;;;3.40;99.90;;;;;;5037681;28;19953;-48
2022/11/25 08:46:13;;;;;;;;;;;4.10;99.90;;;;;;5036201;28;20364;-47
2022/11/25 08:48:40;;;;;;;;;;;4.20;99.90;;;;;;5037953;28;19991;-47
2022/11/25 08:51:12;;;;;;;;;;;4.30;99.90;;;;;;5037784;28;19928;-48
2022/11/25 08:53:39;;;;;;;;;;;4.50;99.90;;;;;;5032474;28;19921;-47
2022/11/25 08:56:06;;;;;;;;;;;4.80;99.90;;;;;;5037222;28;19982;-47
2022/11/25 08:58:33;;;;;;;;;;;4.80;99.90;;;;;;5037055;28;19925;-48
2022/11/25 09:01:00;;;;;;;;;;;4.80;99.90;;;;;;5034166;28;19987;-47
2022/11/25 09:03:27;;;;;;;;;;;4.70;99.90;;;;;;5037201;28;20444;-47
2022/11/25 09:05:53;;;;;;;;;;;4.60;99.90;;;;;;5037569;28;19921;-48
2022/11/25 09:08:20;;;;;;;;;;;4.70;99.90;;;;;;5037307;28;20443;-47
2022/11/25 09:10:47;;;;;;;;;;;4.90;99.90;;;;;;5028799;28;20042;-48
2022/11/25 09:13:14;;;;;;;;;;;5.00;99.90;;;;;;5037085;28;20052;-47
2022/11/25 09:15:40;;;;;;;;;;;5.00;99.90;;;;;;5037503;28;19961;-47
2022/11/25 09:18:08;;;;;;;;;;;4.80;99.90;;;;;;5037773;28;19920;-47
2022/11/25 09:20:36;;;;;;;;;;;4.80;99.90;;;;;;5031270;28;20404;-47
2022/11/25 09:23:03;;;;;;;;;;;4.70;99.90;;;;;;5023773;28;19952;-47
2022/11/25 09:25:30;;;;;;;;;;;4.70;99.90;;;;;;5037317;28;20033;-48
2022/11/25 09:27:57;;;;;;;;;;;4.80;99.90;;;;;;5035593;28;19957;-48
2022/11/25 09:30:24;;;;;;;;;;;4.70;99.90;;;;;;5037559;28;19920;-47
2022/11/25 09:32:52;;;;;;;;;;;4.80;99.90;;;;;;5036974;28;19956;-47
2022/11/25 09:35:19;;;;;;;;;;;4.80;99.90;;;;;;5033160;28;19975;-47
2022/11/25 09:37:46;;;;;;;;;;;4.90;99.90;;;;;;5037076;28;19971;-47
2022/11/25 09:40:17;;;;;;;;;;;4.90;99.90;;;;;;5037353;28;19948;-47
2022/11/25 09:48:20;;;;;;;;;;;5.20;99.90;;;;;;5027914;28;19979;-47
2022/11/25 09:50:53;;;;;;;;;;;5.30;99.90;;;;;;5033300;28;20003;-47
2022/11/25 09:53:26;;;;;;;;;;;5.30;99.90;;;;;;5029075;28;20412;-47
2022/11/25 09:55:53;;;;;;;;;;;5.30;99.90;;;;;;5034040;28;19925;-47
2022/11/25 09:58:35;;;;;;;;;;;5.50;99.90;;;;;;5034004;28;19921;-47
2022/11/25 10:01:10;;;;;;;;;;;5.60;99.90;;;;;;5032666;28;20309;-47
2022/11/25 10:03:56;;;;;;;;;;;5.60;99.90;;;;;;5025502;28;19967;-48
2022/11/25 10:06:28;;;;;;;;;;;5.70;99.90;;;;;;5033295;28;20457;-47
2022/11/25 10:08:56;;;;;;;;;;;5.80;99.90;;;;;;5024143;28;19922;-47
2022/11/25 10:11:41;;;;;;;;;;;5.90;99.90;;;;;;5033356;28;19924;-47
2022/11/25 10:14:17;;;;;;;;;;;6.00;99.90;;;;;;5032175;28;19927;-47
2022/11/25 10:16:51;;;;;;;;;;;6.00;99.90;;;;;;5024339;28;19925;-49
2022/11/25 10:19:30;;;;;;;;;;;6.00;99.90;;;;;;5033917;28;19921;-49
2022/11/25 10:21:57;;;;;;;;;;;6.20;99.90;;;;;;5033039;28;19957;-47
2022/11/25 10:24:24;;;;;;;;;;;6.30;99.90;;;;;;5027323;28;19924;-49
2022/11/25 10:26:57;;;;;;;;;;;6.30;99.90;;;;;;5031625;28;19925;-47
2022/11/25 10:29:31;;;;;;;;;;;6.50;99.90;;;;;;5033194;28;19921;-47
2022/11/25 10:32:27;;;;;;;;;;;6.40;99.90;;;;;;5033037;28;19925;-47
2022/11/25 10:34:57;;;;;;;;;;;6.50;99.90;;;;;;5015262;28;19980;-47
2022/11/25 10:37:27;;;;;;;;;;;6.60;99.90;;;;;;5032853;28;19960;-47
2022/11/25 10:39:53;;;;;;;;;;;6.60;99.90;;;;;;5033252;28;19921;-47
2022/11/25 10:42:21;;;;;;;;;;;6.60;99.90;;;;;;5028417;28;19925;-48
2022/11/25 10:44:49;;;;;;;;;;;6.50;99.90;;;;;;5032425;28;20381;-47
2022/11/25 10:47:22;;;;;;;;;;;6.50;99.90;;;;;;5019009;28;19921;-49
2022/11/25 10:49:58;;;;;;;;;;;6.50;99.90;;;;;;5029197;28;20011;-47
2022/11/25 10:52:26;;;;;;;;;;;6.50;99.90;;;;;;5032843;28;19921;-47
2022/11/25 10:55:06;;;;;;;;;;;6.60;99.90;;;;;;5032922;28;19978;-47
2022/11/25 10:57:33;;;;;;;;;;;6.60;99.90;;;;;;5032934;28;19921;-47
2022/11/25 10:59:59;;;;;;;;;;;6.50;99.90;;;;;;5028367;28;20356;-48
2022/11/25 11:02:28;;;;;;;;;;;6.60;99.90;;;;;;5032732;28;19925;-47
2022/11/25 11:05:07;;;;;;;;;;;6.50;99.90;;;;;;5032913;28;19921;-47
2022/11/25 11:07:43;;;;;;;;;;;6.50;99.90;;;;;;5027735;28;19964;-47
2022/11/25 11:10:10;;;;;;;;;;;6.40;99.90;;;;;;5025854;28;19932;-48
2022/11/25 11:12:37;;;;;;;;;;;6.50;99.90;;;;;;5032609;28;19963;-47
2022/11/25 11:15:17;;;;;;;;;;;6.60;99.90;;;;;;5031332;28;19921;-47
2022/11/25 11:17:43;;;;;;;;;;;6.60;99.90;;;;;;5032274;28;19921;-47
2022/11/25 11:20:14;;;;;;;;;;;6.50;99.90;;;;;;5028740;28;20084;-47
2022/11/25 11:22:46;;;;;;;;;;;6.50;99.90;;;;;;5032177;28;19921;-48
2022/11/25 11:25:18;;;;;;;;;;;6.60;99.90;;;;;;5027756;28;19960;-47
2022/11/25 11:27:46;;;;;;;;;;;6.50;99.90;;;;;;5032516;28;20389;-51
2022/11/25 11:30:23;;;;;;;;;;;6.50;99.90;;;;;;5032514;28;19921;-53
2022/11/25 11:32:54;;;;;;;;;;;6.50;99.90;;;;;;5015377;28;19921;-48
2022/11/25 11:35:29;;;;;;;;;;;6.50;99.90;;;;;;5043721;28;19952;-48
2022/11/25 11:38:03;;;;;;;;;;;6.60;99.90;;;;;;5023525;28;19979;-47
2022/11/25 11:40:33;;;;;;;;;;;6.60;99.90;;;;;;5037875;28;19925;-49
2022/11/25 11:43:06;;;;;;;;;;;6.50;99.90;;;;;;5039373;28;19929;-47
2022/11/25 11:45:48;;;;;;;;;;;6.60;99.90;;;;;;5027716;28;20397;-47
2022/11/25 11:48:17;;;;;;;;;;;6.60;99.90;;;;;;5024554;28;19982;-47
2022/11/25 11:50:46;;;;;;;;;;;6.70;99.90;;;;;;5030708;28;19925;-47
2022/11/25 11:53:31;;;;;;;;;;;6.80;99.90;;;;;;5029842;28;19979;-47
2022/11/25 11:56:01;;;;;;;;;;;7.00;99.90;;;;;;5023839;28;20352;-49
2022/11/25 11:58:51;;;;;;;;;;;7.10;99.90;;;;;;5037227;28;20327;-48
2022/11/25 12:01:23;;;;;;;;;;;7.20;99.90;;;;;;5036693;28;20419;-48
2022/11/25 12:03:56;;;;;;;;;;;7.20;99.90;;;;;;5037844;28;19998;-47
2022/11/25 12:06:24;;;;;;;;;;;7.20;99.90;;;;;;5039942;28;19921;-47
2022/11/25 12:09:02;;;;;;;;;;;7.20;99.90;;;;;;5037110;28;19967;-47
2022/11/25 12:11:33;;;;;;;;;;;7.20;99.90;;;;;;5029672;28;19952;-47
2022/11/25 12:14:08;;;;;;;;;;;7.10;99.90;;;;;;5038928;28;19952;-48
2022/11/25 12:16:35;;;;;;;;;;;7.10;99.90;;;;;;5031329;28;19928;-47
2022/11/25 12:19:01;;;;;;;;;;;7.10;99.90;;;;;;5031281;28;19924;-47
2022/11/25 12:21:37;;;;;;;;;;;7.10;99.90;;;;;;5031927;28;19960;-47
2022/11/25 12:24:10;;;;;;;;;;;7.10;99.90;;;;;;5035978;28;20397;-48
2022/11/25 12:26:46;;;;;;;;;;;7.30;99.90;;;;;;5040043;28;20317;-47
2022/11/25 12:29:32;;;;;;;;;;;7.30;99.90;;;;;;5040047;28;19967;-47
2022/11/25 12:32:17;;;;;;;;;;;7.40;99.90;;;;;;5040032;28;19963;-47
2022/11/25 12:34:49;;;;;;;;;;;7.50;99.90;;;;;;5040074;28;19929;-48
2022/11/25 12:37:22;;;;;;;;;;;7.60;99.90;;;;;;5037018;28;20386;-47
2022/11/25 12:39:57;;;;;;;;;;;7.50;99.90;;;;;;5034653;28;19987;-47
2022/11/25 12:42:24;;;;;;;;;;;7.60;99.90;;;;;;5037133;28;19995;-48
2022/11/25 12:45:03;;;;;;;;;;;7.50;99.90;;;;;;5040134;28;20332;-49
2022/11/25 12:47:30;;;;;;;;;;;7.40;99.90;;;;;;5033089;28;19925;-47
2022/11/25 12:49:57;;;;;;;;;;;7.40;99.90;;;;;;5039217;28;19920;-47
2022/11/25 12:52:27;;;;;;;;;;;7.40;99.90;;;;;;5030849;28;20274;-49
2022/11/25 12:55:09;;;;;;;;;;;7.40;99.90;;;;;;5022458;28;19921;-48
2022/11/25 12:57:51;;;;;;;;;;;7.40;99.90;;;;;;5027467;28;19943;-47
2022/11/25 13:00:19;;;;;;;;;;;7.40;99.90;;;;;;5011932;28;20333;-48
2022/11/25 13:03:25;;;;;;;;;;;7.40;99.90;;;;;;5038480;28;20296;-48
2022/11/25 13:06:12;;;;;;;;;;;7.40;99.90;;;;;;5021314;28;20149;-47
2022/11/25 13:08:39;;;;;;;;;;;7.50;99.90;;;;;;4988932;28;20372;-47
2022/11/25 13:11:11;;;;;;;;;;;7.50;99.90;;;;;;5029366;28;20390;-47
2022/11/25 13:13:48;;;;;;;;;;;7.40;99.90;;;;;;5022906;28;19921;-47
2022/11/25 13:16:16;;;;;;;;;;;7.50;99.90;;;;;;5020299;28;19975;-47
2022/11/25 13:18:44;;;;;;;;;;;7.50;99.90;;;;;;5029308;28;19921;-50
2022/11/25 13:21:11;;;;;;;;;;;7.60;99.90;;;;;;5025325;28;19921;-47
2022/11/25 13:23:58;;;;;;;;;;;7.60;99.90;;;;;;5031163;28;19952;-49
2022/11/25 13:26:32;;;;;;;;;;;7.70;99.90;;;;;;5034652;28;19947;-49
2022/11/25 13:29:00;;;;;;;;;;;7.70;99.90;;;;;;5031599;28;20271;-47
2022/11/25 13:31:31;;;;;;;;;;;7.60;99.90;;;;;;5025544;28;20039;-48
2022/11/25 13:34:18;;;;;;;;;;;7.60;99.90;;;;;;5034895;28;19999;-47
2022/11/25 13:36:45;;;;;;;;;;;7.50;99.90;;;;;;5033085;28;20344;-48
2022/11/25 13:39:30;;;;;;;;;;;7.50;99.90;;;;;;5027549;28;19924;-47
2022/11/25 13:42:01;;;;;;;;;;;7.40;99.90;;;;;;5033214;28;19975;-47
2022/11/25 13:44:47;;;;;;;;;;;7.40;99.90;;;;;;5034822;28;19929;-47
2022/11/25 13:47:32;;;;;;;;;;;7.40;99.90;;;;;;5026351;28;19984;-47
2022/11/25 13:50:04;;;;;;;;;;;7.40;99.90;;;;;;5034366;28;20455;-48
2022/11/25 13:52:33;;;;;;;;;;;7.40;99.90;;;;;;5030981;28;20274;-48
2022/11/25 13:55:01;;;;;;;;;;;7.40;99.90;;;;;;5032203;28;19983;-47
2022/11/25 13:57:29;;;;;;;;;;;7.50;99.90;;;;;;5077465;22;19920;-50
2022/11/25 13:59:57;;;;;;;;;;;7.40;99.90;;;;;;5084197;28;19998;-50
2022/11/25 14:02:26;;;;;;;;;;;7.50;99.90;;;;;;5080935;28;19982;-51
2022/11/25 14:05:06;;;;;;;;;;;7.50;99.90;;;;;;5086336;28;19920;-50
2022/11/25 14:07:32;;;;;;;;;;;7.50;99.90;;;;;;5075333;28;19965;-49
2022/11/25 14:10:07;;;;;;;;;;;7.30;99.90;;;;;;5073588;28;19927;-50
2022/11/25 14:12:59;;;;;;;;;;;7.20;99.90;;;;;;5073956;28;19924;-50
2022/11/25 14:15:31;;;;;;;;;;;7.20;99.90;;;;;;5070833;28;19927;-52
2022/11/25 14:18:23;;;;;;;;;;;7.00;99.90;;;;;;5072444;28;19920;-50
2022/11/25 14:21:19;;;;;;;;;;;6.90;99.90;;;;;;5053695;28;19921;-49
2022/11/25 14:23:51;;;;;;;;;;;6.70;99.90;;;;;;5081429;28;19950;-50
2022/11/25 14:26:26;;;;;;;;;;;6.60;99.90;;;;;;5072149;28;19951;-49
2022/11/25 14:29:12;;;;;;;;;;;6.50;99.90;;;;;;5078288;28;19920;-49
2022/11/25 14:31:43;;;;;;;;;;;6.40;99.90;;;;;;5074542;28;20596;-50
2022/11/25 14:34:31;;;;;;;;;;;6.30;99.90;;;;;;5079591;28;20376;-51
2022/11/25 14:37:09;;;;;;;;;;;6.10;99.90;;;;;;5048499;28;20019;-50
2022/11/25 14:39:41;;;;;;;;;;;6.00;99.90;;;;;;5065412;28;19963;-49
2022/11/25 14:42:09;;;;;;;;;;;6.00;99.90;;;;;;5053187;28;19967;-50
2022/11/25 14:44:43;;;;;;;;;;;5.80;99.90;;;;;;5060129;28;19935;-48
2022/11/25 14:47:10;;;;;;;;;;;5.80;99.90;;;;;;5065430;28;19920;-48
2022/11/25 14:49:51;;;;;;;;;;;5.70;99.90;;;;;;5073191;28;19959;-48